sensor_id;sensor_type;location;lat;lon;timestamp;temperature;humidity
33508;DHT22;25568;37.410;-122.096;2023-11-22T00:01:28;16.60;72.70
33508;DHT22;25568;37.410;-122.096;2023-11-22T00:03:57;16.60;72.70
33508;DHT22;25568;37.410;-122.096;2023-11-22T00:06:27;16.60;72.70
33508;DHT22;25568;37.410;-122.096;2023-11-22T00:08:56;16.70;72.70
33508;DHT22;25568;37.410;-122.096;2023-11-22T00:11:25;16.60;72.60
33508;DHT22;25568;37.410;-122.096;2023-11-22T00:13:55;16.70;72.70
33508;DHT22;25568;37.410;-122.096;2023-11-22T00:16:24;16.70;72.70
33508;DHT22;25568;37.410;-122.096;2023-11-22T00:18:54;16.70;72.80
33508;DHT22;25568;37.410;-122.096;2023-11-22T00:21:22;16.70;72.70
33508;DHT22;25568;37.410;-122.096;2023-11-22T00:23:51;16.70;72.80
33508;DHT22;25568;37.410;-122.096;2023-11-22T00:26:20;16.70;72.80
33508;DHT22;25568;37.410;-122.096;2023-11-22T00:28:49;16.70;72.70
33508;DHT22;25568;37.410;-122.096;2023-11-22T00:31:21;16.70;72.70
33508;DHT22;25568;37.410;-122.096;2023-11-22T00:33:50;16.70;72.70
33508;DHT22;25568;37.410;-122.096;2023-11-22T00:36:18;16.80;72.80
33508;DHT22;25568;37.410;-122.096;2023-11-22T00:38:47;16.70;72.70
33508;DHT22;25568;37.410;-122.096;2023-11-22T00:41:16;16.70;72.80
33508;DHT22;25568;37.410;-122.096;2023-11-22T00:43:45;16.70;72.70
33508;DHT22;25568;37.410;-122.096;2023-11-22T00:46:14;16.70;72.70
33508;DHT22;25568;37.410;-122.096;2023-11-22T00:48:44;16.80;72.80
33508;DHT22;25568;37.410;-122.096;2023-11-22T00:51:13;16.80;72.80
33508;DHT22;25568;37.410;-122.096;2023-11-22T00:53:42;16.80;72.80
33508;DHT22;25568;37.410;-122.096;2023-11-22T00:56:12;16.80;72.80
33508;DHT22;25568;37.410;-122.096;2023-11-22T00:58:40;16.80;72.80
33508;DHT22;25568;37.410;-122.096;2023-11-22T01:01:09;16.80;72.80
33508;DHT22;25568;37.410;-122.096;2023-11-22T01:03:38;16.80;72.80
33508;DHT22;25568;37.410;-122.096;2023-11-22T01:06:09;16.80;72.80
33508;DHT22;25568;37.410;-122.096;2023-11-22T01:08:37;16.80;72.80
33508;DHT22;25568;37.410;-122.096;2023-11-22T01:11:06;16.90;72.80
33508;DHT22;25568;37.410;-122.096;2023-11-22T01:13:35;16.90;72.90
33508;DHT22;25568;37.410;-122.096;2023-11-22T01:16:07;16.90;72.80
33508;DHT22;25568;37.410;-122.096;2023-11-22T01:18:36;16.80;72.80
33508;DHT22;25568;37.410;-122.096;2023-11-22T01:21:08;16.90;72.80
33508;DHT22;25568;37.410;-122.096;2023-11-22T01:23:39;16.90;72.90
33508;DHT22;25568;37.410;-122.096;2023-11-22T01:26:09;16.90;72.90
33508;DHT22;25568;37.410;-122.096;2023-11-22T01:28:41;16.90;72.90
33508;DHT22;25568;37.410;-122.096;2023-11-22T01:31:14;16.90;72.90
33508;DHT22;25568;37.410;-122.096;2023-11-22T01:33:47;16.90;72.90
33508;DHT22;25568;37.410;-122.096;2023-11-22T01:36:20;16.90;72.90
33508;DHT22;25568;37.410;-122.096;2023-11-22T01:38:54;16.90;72.80
33508;DHT22;25568;37.410;-122.096;2023-11-22T01:41:26;16.90;72.80
33508;DHT22;25568;37.410;-122.096;2023-11-22T01:43:58;16.90;72.80
33508;DHT22;25568;37.410;-122.096;2023-11-22T01:46:33;17.00;73.00
33508;DHT22;25568;37.410;-122.096;2023-11-22T01:49:03;16.90;73.00
33508;DHT22;25568;37.410;-122.096;2023-11-22T01:51:36;16.90;73.00
33508;DHT22;25568;37.410;-122.096;2023-11-22T01:54:08;17.00;73.00
33508;DHT22;25568;37.410;-122.096;2023-11-22T01:56:39;16.90;73.00
33508;DHT22;25568;37.410;-122.096;2023-11-22T01:59:10;17.00;73.00
33508;DHT22;25568;37.410;-122.096;2023-11-22T02:01:40;17.00;73.00
33508;DHT22;25568;37.410;-122.096;2023-11-22T02:04:12;17.00;73.00
33508;DHT22;25568;37.410;-122.096;2023-11-22T02:06:44;17.00;73.00
33508;DHT22;25568;37.410;-122.096;2023-11-22T02:09:15;17.00;73.00
33508;DHT22;25568;37.410;-122.096;2023-11-22T02:11:45;17.00;73.00
33508;DHT22;25568;37.410;-122.096;2023-11-22T02:14:16;17.00;73.10
33508;DHT22;25568;37.410;-122.096;2023-11-22T02:16:46;17.00;73.10
33508;DHT22;25568;37.410;-122.096;2023-11-22T02:19:18;17.00;73.00
33508;DHT22;25568;37.410;-122.096;2023-11-22T02:21:49;17.00;73.10
33508;DHT22;25568;37.410;-122.096;2023-11-22T02:24:21;17.00;73.00
33508;DHT22;25568;37.410;-122.096;2023-11-22T02:26:51;17.00;73.00
33508;DHT22;25568;37.410;-122.096;2023-11-22T02:29:22;17.00;73.00
33508;DHT22;25568;37.410;-122.096;2023-11-22T02:31:52;17.00;73.00
33508;DHT22;25568;37.410;-122.096;2023-11-22T02:34:22;17.00;73.00
33508;DHT22;25568;37.410;-122.096;2023-11-22T02:36:53;17.00;73.10
33508;DHT22;25568;37.410;-122.096;2023-11-22T02:39:29;17.00;73.10
33508;DHT22;25568;37.410;-122.096;2023-11-22T02:42:02;17.00;73.00
33508;DHT22;25568;37.410;-122.096;2023-11-22T02:44:32;17.00;73.10
33508;DHT22;25568;37.410;-122.096;2023-11-22T02:47:02;17.00;73.10
33508;DHT22;25568;37.410;-122.096;2023-11-22T02:49:33;17.00;73.00
33508;DHT22;25568;37.410;-122.096;2023-11-22T02:52:03;17.00;73.00
33508;DHT22;25568;37.410;-122.096;2023-11-22T02:54:37;17.00;73.00
33508;DHT22;25568;37.410;-122.096;2023-11-22T02:57:09;17.10;73.10
33508;DHT22;25568;37.410;-122.096;2023-11-22T02:59:41;17.00;73.00
33508;DHT22;25568;37.410;-122.096;2023-11-22T03:02:11;17.00;73.00
33508;DHT22;25568;37.410;-122.096;2023-11-22T03:04:42;17.10;73.10
33508;DHT22;25568;37.410;-122.096;2023-11-22T03:07:12;17.10;73.10
33508;DHT22;25568;37.410;-122.096;2023-11-22T03:09:43;17.10;73.10
33508;DHT22;25568;37.410;-122.096;2023-11-22T03:12:15;17.00;73.10
33508;DHT22;25568;37.410;-122.096;2023-11-22T03:14:46;17.00;73.10
33508;DHT22;25568;37.410;-122.096;2023-11-22T03:17:19;17.00;73.10
33508;DHT22;25568;37.410;-122.096;2023-11-22T03:19:49;17.00;73.10
33508;DHT22;25568;37.410;-122.096;2023-11-22T03:22:21;17.00;73.10
33508;DHT22;25568;37.410;-122.096;2023-11-22T03:24:54;17.00;73.10
33508;DHT22;25568;37.410;-122.096;2023-11-22T03:27:25;17.10;73.20
33508;DHT22;25568;37.410;-122.096;2023-11-22T03:29:55;17.00;73.10
33508;DHT22;25568;37.410;-122.096;2023-11-22T03:32:26;17.00;73.10
33508;DHT22;25568;37.410;-122.096;2023-11-22T03:34:57;17.00;73.10
33508;DHT22;25568;37.410;-122.096;2023-11-22T03:37:25;17.00;73.10
33508;DHT22;25568;37.410;-122.096;2023-11-22T03:39:57;17.00;73.10
33508;DHT22;25568;37.410;-122.096;2023-11-22T03:42:28;17.00;73.10
33508;DHT22;25568;37.410;-122.096;2023-11-22T03:44:59;17.00;73.10
33508;DHT22;25568;37.410;-122.096;2023-11-22T03:47:29;17.00;73.10
33508;DHT22;25568;37.410;-122.096;2023-11-22T03:50:01;17.00;73.10
33508;DHT22;25568;37.410;-122.096;2023-11-22T03:52:32;17.00;73.10
33508;DHT22;25568;37.410;-122.096;2023-11-22T03:55:07;17.00;73.10
33508;DHT22;25568;37.410;-122.096;2023-11-22T03:57:36;17.00;73.10
33508;DHT22;25568;37.410;-122.096;2023-11-22T04:00:07;17.00;73.10
33508;DHT22;25568;37.410;-122.096;2023-11-22T04:02:39;17.00;73.10
33508;DHT22;25568;37.410;-122.096;2023-11-22T04:05:11;17.00;73.10
33508;DHT22;25568;37.410;-122.096;2023-11-22T04:07:42;17.00;73.10
33508;DHT22;25568;37.410;-122.096;2023-11-22T04:10:12;17.00;73.10
33508;DHT22;25568;37.410;-122.096;2023-11-22T04:12:41;17.00;73.10
33508;DHT22;25568;37.410;-122.096;2023-11-22T04:15:10;17.00;73.20
33508;DHT22;25568;37.410;-122.096;2023-11-22T04:17:39;17.00;73.20
33508;DHT22;25568;37.410;-122.096;2023-11-22T04:20:09;17.00;73.20
33508;DHT22;25568;37.410;-122.096;2023-11-22T04:22:42;17.00;73.20
33508;DHT22;25568;37.410;-122.096;2023-11-22T04:25:14;17.00;73.30
33508;DHT22;25568;37.410;-122.096;2023-11-22T04:27:43;17.00;73.20
33508;DHT22;25568;37.410;-122.096;2023-11-22T04:30:12;17.00;73.10
33508;DHT22;25568;37.410;-122.096;2023-11-22T04:32:43;17.00;73.10
33508;DHT22;25568;37.410;-122.096;2023-11-22T04:35:11;17.00;73.10
33508;DHT22;25568;37.410;-122.096;2023-11-22T04:37:40;17.00;73.20
33508;DHT22;25568;37.410;-122.096;2023-11-22T04:40:10;17.00;73.20
33508;DHT22;25568;37.410;-122.096;2023-11-22T04:42:42;17.00;73.20
33508;DHT22;25568;37.410;-122.096;2023-11-22T04:45:11;17.00;73.20
33508;DHT22;25568;37.410;-122.096;2023-11-22T04:47:40;17.00;73.20
33508;DHT22;25568;37.410;-122.096;2023-11-22T04:50:10;17.00;73.20
33508;DHT22;25568;37.410;-122.096;2023-11-22T04:52:39;16.90;73.10
33508;DHT22;25568;37.410;-122.096;2023-11-22T04:55:08;17.00;73.10
33508;DHT22;25568;37.410;-122.096;2023-11-22T04:57:37;16.90;73.10
33508;DHT22;25568;37.410;-122.096;2023-11-22T05:00:10;16.90;73.20
33508;DHT22;25568;37.410;-122.096;2023-11-22T05:02:38;16.90;73.10
33508;DHT22;25568;37.410;-122.096;2023-11-22T05:05:08;16.90;73.10
33508;DHT22;25568;37.410;-122.096;2023-11-22T05:07:38;16.90;73.10
33508;DHT22;25568;37.410;-122.096;2023-11-22T05:10:08;16.90;73.10
33508;DHT22;25568;37.410;-122.096;2023-11-22T05:12:37;16.90;73.10
33508;DHT22;25568;37.410;-122.096;2023-11-22T05:15:08;16.90;73.20
33508;DHT22;25568;37.410;-122.096;2023-11-22T05:17:38;16.90;73.30
33508;DHT22;25568;37.410;-122.096;2023-11-22T05:20:08;16.90;73.30
33508;DHT22;25568;37.410;-122.096;2023-11-22T05:22:38;16.90;73.30
33508;DHT22;25568;37.410;-122.096;2023-11-22T05:25:07;16.90;73.20
33508;DHT22;25568;37.410;-122.096;2023-11-22T05:27:36;16.90;73.20
33508;DHT22;25568;37.410;-122.096;2023-11-22T05:30:05;16.90;73.30
33508;DHT22;25568;37.410;-122.096;2023-11-22T05:32:36;16.80;73.10
33508;DHT22;25568;37.410;-122.096;2023-11-22T05:35:05;16.90;73.20
33508;DHT22;25568;37.410;-122.096;2023-11-22T05:37:36;16.80;73.10
33508;DHT22;25568;37.410;-122.096;2023-11-22T05:40:06;16.90;73.20
33508;DHT22;25568;37.410;-122.096;2023-11-22T05:42:36;16.80;73.20
33508;DHT22;25568;37.410;-122.096;2023-11-22T05:45:06;16.80;73.10
33508;DHT22;25568;37.410;-122.096;2023-11-22T05:47:37;16.90;73.20
33508;DHT22;25568;37.410;-122.096;2023-11-22T05:50:07;16.80;73.10
33508;DHT22;25568;37.410;-122.096;2023-11-22T05:52:36;16.80;73.30
33508;DHT22;25568;37.410;-122.096;2023-11-22T05:55:06;16.80;73.10
33508;DHT22;25568;37.410;-122.096;2023-11-22T05:57:35;16.80;73.30
33508;DHT22;25568;37.410;-122.096;2023-11-22T06:00:05;16.80;73.30
33508;DHT22;25568;37.410;-122.096;2023-11-22T06:02:34;16.80;73.10
33508;DHT22;25568;37.410;-122.096;2023-11-22T06:05:05;16.80;73.20
33508;DHT22;25568;37.410;-122.096;2023-11-22T06:07:34;16.80;73.20
33508;DHT22;25568;37.410;-122.096;2023-11-22T06:10:03;16.80;73.10
33508;DHT22;25568;37.410;-122.096;2023-11-22T06:12:32;16.80;73.10
33508;DHT22;25568;37.410;-122.096;2023-11-22T06:15:01;16.80;73.20
33508;DHT22;25568;37.410;-122.096;2023-11-22T06:17:30;16.80;73.30
33508;DHT22;25568;37.410;-122.096;2023-11-22T06:19:58;16.80;73.20
33508;DHT22;25568;37.410;-122.096;2023-11-22T06:22:29;16.70;73.10
33508;DHT22;25568;37.410;-122.096;2023-11-22T06:24:59;16.80;73.30
33508;DHT22;25568;37.410;-122.096;2023-11-22T06:27:27;16.80;73.20
33508;DHT22;25568;37.410;-122.096;2023-11-22T06:29:56;16.70;73.10
33508;DHT22;25568;37.410;-122.096;2023-11-22T06:32:25;16.80;73.30
33508;DHT22;25568;37.410;-122.096;2023-11-22T06:34:54;16.70;73.30
33508;DHT22;25568;37.410;-122.096;2023-11-22T06:37:22;16.70;74.00
33508;DHT22;25568;37.410;-122.096;2023-11-22T06:39:54;16.70;73.30
33508;DHT22;25568;37.410;-122.096;2023-11-22T06:42:24;16.70;73.30
33508;DHT22;25568;37.410;-122.096;2023-11-22T06:44:53;16.70;73.20
33508;DHT22;25568;37.410;-122.096;2023-11-22T06:47:25;16.70;73.20
33508;DHT22;25568;37.410;-122.096;2023-11-22T06:49:54;16.70;73.30
33508;DHT22;25568;37.410;-122.096;2023-11-22T06:52:22;16.70;73.20
33508;DHT22;25568;37.410;-122.096;2023-11-22T06:54:53;16.70;73.30
33508;DHT22;25568;37.410;-122.096;2023-11-22T06:57:22;16.70;73.30
33508;DHT22;25568;37.410;-122.096;2023-11-22T06:59:55;16.70;73.30
33508;DHT22;25568;37.410;-122.096;2023-11-22T07:02:24;16.70;73.30
33508;DHT22;25568;37.410;-122.096;2023-11-22T07:04:53;16.60;74.10
33508;DHT22;25568;37.410;-122.096;2023-11-22T07:07:22;16.60;73.20
33508;DHT22;25568;37.410;-122.096;2023-11-22T07:09:53;16.70;73.30
33508;DHT22;25568;37.410;-122.096;2023-11-22T07:12:23;16.60;73.30
33508;DHT22;25568;37.410;-122.096;2023-11-22T07:14:51;16.60;73.30
33508;DHT22;25568;37.410;-122.096;2023-11-22T07:17:20;16.60;73.20
33508;DHT22;25568;37.410;-122.096;2023-11-22T07:19:49;16.60;73.30
33508;DHT22;25568;37.410;-122.096;2023-11-22T07:22:18;16.60;73.30
33508;DHT22;25568;37.410;-122.096;2023-11-22T07:24:49;16.60;73.30
33508;DHT22;25568;37.410;-122.096;2023-11-22T07:27:22;16.60;73.30
33508;DHT22;25568;37.410;-122.096;2023-11-22T07:29:52;16.60;73.30
33508;DHT22;25568;37.410;-122.096;2023-11-22T07:32:21;16.60;73.30
33508;DHT22;25568;37.410;-122.096;2023-11-22T07:34:50;16.60;74.10
33508;DHT22;25568;37.410;-122.096;2023-11-22T07:37:22;16.60;73.30
33508;DHT22;25568;37.410;-122.096;2023-11-22T07:39:51;16.60;73.30
33508;DHT22;25568;37.410;-122.096;2023-11-22T07:42:22;16.60;73.30
33508;DHT22;25568;37.410;-122.096;2023-11-22T07:44:51;16.60;73.30
33508;DHT22;25568;37.410;-122.096;2023-11-22T07:47:22;16.50;73.30
33508;DHT22;25568;37.410;-122.096;2023-11-22T07:49:51;16.50;73.30
33508;DHT22;25568;37.410;-122.096;2023-11-22T07:52:22;16.60;73.30
33508;DHT22;25568;37.410;-122.096;2023-11-22T07:54:56;16.50;73.30
33508;DHT22;25568;37.410;-122.096;2023-11-22T07:57:27;16.50;73.30
33508;DHT22;25568;37.410;-122.096;2023-11-22T07:59:56;16.50;73.30
33508;DHT22;25568;37.410;-122.096;2023-11-22T08:02:24;16.50;73.40
33508;DHT22;25568;37.410;-122.096;2023-11-22T08:04:53;16.50;73.30
33508;DHT22;25568;37.410;-122.096;2023-11-22T08:07:22;16.50;73.40
33508;DHT22;25568;37.410;-122.096;2023-11-22T08:09:53;16.50;73.30
33508;DHT22;25568;37.410;-122.096;2023-11-22T08:12:22;16.40;73.30
33508;DHT22;25568;37.410;-122.096;2023-11-22T08:14:52;16.50;73.40
33508;DHT22;25568;37.410;-122.096;2023-11-22T08:17:22;16.50;73.40
33508;DHT22;25568;37.410;-122.096;2023-11-22T08:19:51;16.50;73.50
33508;DHT22;25568;37.410;-122.096;2023-11-22T08:22:20;16.50;73.40
33508;DHT22;25568;37.410;-122.096;2023-11-22T08:24:49;16.40;73.30
33508;DHT22;25568;37.410;-122.096;2023-11-22T08:27:18;16.40;73.30
33508;DHT22;25568;37.410;-122.096;2023-11-22T08:29:47;16.40;73.40
33508;DHT22;25568;37.410;-122.096;2023-11-22T08:32:17;16.40;73.40
33508;DHT22;25568;37.410;-122.096;2023-11-22T08:34:48;16.40;73.50
33508;DHT22;25568;37.410;-122.096;2023-11-22T08:37:18;16.40;73.40
33508;DHT22;25568;37.410;-122.096;2023-11-22T08:39:47;16.40;73.50
33508;DHT22;25568;37.410;-122.096;2023-11-22T08:42:16;16.40;73.40
33508;DHT22;25568;37.410;-122.096;2023-11-22T08:44:45;16.40;73.40
33508;DHT22;25568;37.410;-122.096;2023-11-22T08:47:14;16.40;73.50
33508;DHT22;25568;37.410;-122.096;2023-11-22T08:49:45;16.40;73.50
33508;DHT22;25568;37.410;-122.096;2023-11-22T08:52:14;16.40;73.40
33508;DHT22;25568;37.410;-122.096;2023-11-22T08:54:43;16.40;73.50
33508;DHT22;25568;37.410;-122.096;2023-11-22T08:57:12;16.40;73.50
33508;DHT22;25568;37.410;-122.096;2023-11-22T08:59:42;16.40;73.50
33508;DHT22;25568;37.410;-122.096;2023-11-22T09:02:10;16.30;73.40
33508;DHT22;25568;37.410;-122.096;2023-11-22T09:04:43;16.30;73.50
33508;DHT22;25568;37.410;-122.096;2023-11-22T09:07:11;16.30;73.50
33508;DHT22;25568;37.410;-122.096;2023-11-22T09:09:41;16.30;73.50
33508;DHT22;25568;37.410;-122.096;2023-11-22T09:12:10;16.30;73.40
33508;DHT22;25568;37.410;-122.096;2023-11-22T09:14:40;16.30;73.40
33508;DHT22;25568;37.410;-122.096;2023-11-22T09:17:09;16.30;73.40
33508;DHT22;25568;37.410;-122.096;2023-11-22T09:19:38;16.30;73.40
33508;DHT22;25568;37.410;-122.096;2023-11-22T09:22:08;16.30;73.50
33508;DHT22;25568;37.410;-122.096;2023-11-22T09:24:37;16.30;73.50
33508;DHT22;25568;37.410;-122.096;2023-11-22T09:27:06;16.30;73.50
33508;DHT22;25568;37.410;-122.096;2023-11-22T09:29:37;16.20;73.50
33508;DHT22;25568;37.410;-122.096;2023-11-22T09:32:06;16.30;73.50
33508;DHT22;25568;37.410;-122.096;2023-11-22T09:34:36;16.30;73.50
33508;DHT22;25568;37.410;-122.096;2023-11-22T09:37:05;16.30;73.50
33508;DHT22;25568;37.410;-122.096;2023-11-22T09:39:36;16.20;73.50
33508;DHT22;25568;37.410;-122.096;2023-11-22T09:42:06;16.20;73.50
33508;DHT22;25568;37.410;-122.096;2023-11-22T09:44:35;16.20;73.50
33508;DHT22;25568;37.410;-122.096;2023-11-22T09:47:04;16.20;73.50
33508;DHT22;25568;37.410;-122.096;2023-11-22T09:49:34;16.20;73.50
33508;DHT22;25568;37.410;-122.096;2023-11-22T09:52:04;16.20;73.50
33508;DHT22;25568;37.410;-122.096;2023-11-22T09:54:38;16.20;73.60
33508;DHT22;25568;37.410;-122.096;2023-11-22T09:57:08;16.20;73.50
33508;DHT22;25568;37.410;-122.096;2023-11-22T09:59:39;16.20;73.60
33508;DHT22;25568;37.410;-122.096;2023-11-22T10:02:09;16.20;73.60
33508;DHT22;25568;37.410;-122.096;2023-11-22T10:04:38;16.20;73.50
33508;DHT22;25568;37.410;-122.096;2023-11-22T10:07:08;16.10;73.50
33508;DHT22;25568;37.410;-122.096;2023-11-22T10:09:39;16.10;73.50
33508;DHT22;25568;37.410;-122.096;2023-11-22T10:12:08;16.10;73.50
33508;DHT22;25568;37.410;-122.096;2023-11-22T10:14:37;16.10;73.40
33508;DHT22;25568;37.410;-122.096;2023-11-22T10:17:06;16.10;73.50
33508;DHT22;25568;37.410;-122.096;2023-11-22T10:19:36;16.10;73.50
33508;DHT22;25568;37.410;-122.096;2023-11-22T10:22:06;16.10;73.50
33508;DHT22;25568;37.410;-122.096;2023-11-22T10:24:35;16.10;73.60
33508;DHT22;25568;37.410;-122.096;2023-11-22T10:27:06;16.10;73.60
33508;DHT22;25568;37.410;-122.096;2023-11-22T10:29:34;16.10;73.60
33508;DHT22;25568;37.410;-122.096;2023-11-22T10:32:04;16.00;73.60
33508;DHT22;25568;37.410;-122.096;2023-11-22T10:34:34;16.10;73.60
33508;DHT22;25568;37.410;-122.096;2023-11-22T10:37:04;16.10;73.60
33508;DHT22;25568;37.410;-122.096;2023-11-22T10:39:33;16.10;73.60
33508;DHT22;25568;37.410;-122.096;2023-11-22T10:42:05;16.00;73.50
33508;DHT22;25568;37.410;-122.096;2023-11-22T10:44:35;16.00;73.60
33508;DHT22;25568;37.410;-122.096;2023-11-22T10:47:06;16.00;73.60
33508;DHT22;25568;37.410;-122.096;2023-11-22T10:49:35;16.00;73.60
33508;DHT22;25568;37.410;-122.096;2023-11-22T10:52:08;16.00;73.50
33508;DHT22;25568;37.410;-122.096;2023-11-22T10:54:50;16.00;73.50
33508;DHT22;25568;37.410;-122.096;2023-11-22T10:57:27;16.00;73.60
33508;DHT22;25568;37.410;-122.096;2023-11-22T11:00:03;16.00;73.60
33508;DHT22;25568;37.410;-122.096;2023-11-22T11:02:40;16.00;73.50
33508;DHT22;25568;37.410;-122.096;2023-11-22T11:05:14;16.00;73.60
33508;DHT22;25568;37.410;-122.096;2023-11-22T11:07:48;16.00;73.60
33508;DHT22;25568;37.410;-122.096;2023-11-22T11:10:20;15.90;73.50
33508;DHT22;25568;37.410;-122.096;2023-11-22T11:12:53;15.90;73.50
33508;DHT22;25568;37.410;-122.096;2023-11-22T11:15:22;15.90;73.50
33508;DHT22;25568;37.410;-122.096;2023-11-22T11:17:51;15.90;73.50
33508;DHT22;25568;37.410;-122.096;2023-11-22T11:20:23;15.90;73.50
33508;DHT22;25568;37.410;-122.096;2023-11-22T11:22:53;15.90;73.60
33508;DHT22;25568;37.410;-122.096;2023-11-22T11:25:22;15.90;73.50
33508;DHT22;25568;37.410;-122.096;2023-11-22T11:27:58;15.90;73.60
33508;DHT22;25568;37.410;-122.096;2023-11-22T11:30:44;15.90;73.50
33508;DHT22;25568;37.410;-122.096;2023-11-22T11:33:14;15.90;73.50
33508;DHT22;25568;37.410;-122.096;2023-11-22T11:35:46;15.90;73.60
33508;DHT22;25568;37.410;-122.096;2023-11-22T11:38:16;15.90;73.60
33508;DHT22;25568;37.410;-122.096;2023-11-22T11:40:47;15.90;73.60
33508;DHT22;25568;37.410;-122.096;2023-11-22T11:43:21;15.80;73.60
33508;DHT22;25568;37.410;-122.096;2023-11-22T11:45:50;15.80;73.60
33508;DHT22;25568;37.410;-122.096;2023-11-22T11:48:22;15.80;73.60
33508;DHT22;25568;37.410;-122.096;2023-11-22T11:50:53;15.80;73.60
33508;DHT22;25568;37.410;-122.096;2023-11-22T11:53:22;15.80;74.40
33508;DHT22;25568;37.410;-122.096;2023-11-22T11:55:50;15.80;73.70
33508;DHT22;25568;37.410;-122.096;2023-11-22T11:58:21;15.80;73.60
33508;DHT22;25568;37.410;-122.096;2023-11-22T12:00:51;15.80;73.60
33508;DHT22;25568;37.410;-122.096;2023-11-22T12:03:21;15.80;73.70
33508;DHT22;25568;37.410;-122.096;2023-11-22T12:05:49;15.80;73.70
33508;DHT22;25568;37.410;-122.096;2023-11-22T12:08:18;15.80;73.70
33508;DHT22;25568;37.410;-122.096;2023-11-22T12:10:47;15.80;73.70
33508;DHT22;25568;37.410;-122.096;2023-11-22T12:13:22;15.80;73.70
33508;DHT22;25568;37.410;-122.096;2023-11-22T12:15:52;15.80;73.70
33508;DHT22;25568;37.410;-122.096;2023-11-22T12:18:21;15.70;73.60
33508;DHT22;25568;37.410;-122.096;2023-11-22T12:20:57;15.70;73.60
33508;DHT22;25568;37.410;-122.096;2023-11-22T12:23:29;15.70;73.70
33508;DHT22;25568;37.410;-122.096;2023-11-22T12:25:58;15.70;73.70
33508;DHT22;25568;37.410;-122.096;2023-11-22T12:28:30;15.70;73.60
33508;DHT22;25568;37.410;-122.096;2023-11-22T12:31:07;15.70;73.60
33508;DHT22;25568;37.410;-122.096;2023-11-22T12:33:37;15.70;73.60
33508;DHT22;25568;37.410;-122.096;2023-11-22T12:36:07;15.70;73.70
33508;DHT22;25568;37.410;-122.096;2023-11-22T12:38:37;15.70;73.70
33508;DHT22;25568;37.410;-122.096;2023-11-22T12:41:06;15.70;73.70
33508;DHT22;25568;37.410;-122.096;2023-11-22T12:43:37;15.70;73.70
33508;DHT22;25568;37.410;-122.096;2023-11-22T12:46:07;15.70;73.70
33508;DHT22;25568;37.410;-122.096;2023-11-22T12:48:40;15.70;73.60
33508;DHT22;25568;37.410;-122.096;2023-11-22T12:51:15;15.70;73.60
33508;DHT22;25568;37.410;-122.096;2023-11-22T12:53:46;15.70;73.70
33508;DHT22;25568;37.410;-122.096;2023-11-22T12:56:16;15.70;73.70
33508;DHT22;25568;37.410;-122.096;2023-11-22T12:58:47;15.60;73.60
33508;DHT22;25568;37.410;-122.096;2023-11-22T13:01:16;15.70;73.70
33508;DHT22;25568;37.410;-122.096;2023-11-22T13:03:49;15.60;73.60
33508;DHT22;25568;37.410;-122.096;2023-11-22T13:06:18;15.60;73.60
33508;DHT22;25568;37.410;-122.096;2023-11-22T13:08:46;15.60;73.70
33508;DHT22;25568;37.410;-122.096;2023-11-22T13:11:15;15.60;73.70
33508;DHT22;25568;37.410;-122.096;2023-11-22T13:13:47;15.60;73.70
33508;DHT22;25568;37.410;-122.096;2023-11-22T13:16:16;15.60;73.70
33508;DHT22;25568;37.410;-122.096;2023-11-22T13:18:45;15.60;73.70
33508;DHT22;25568;37.410;-122.096;2023-11-22T13:21:15;15.60;73.70
33508;DHT22;25568;37.410;-122.096;2023-11-22T13:23:44;15.60;73.70
33508;DHT22;25568;37.410;-122.096;2023-11-22T13:26:12;15.60;73.70
33508;DHT22;25568;37.410;-122.096;2023-11-22T13:28:41;15.60;73.70
33508;DHT22;25568;37.410;-122.096;2023-11-22T13:31:12;15.50;73.70
33508;DHT22;25568;37.410;-122.096;2023-11-22T13:33:41;15.60;73.70
33508;DHT22;25568;37.410;-122.096;2023-11-22T13:36:13;15.50;73.60
33508;DHT22;25568;37.410;-122.096;2023-11-22T13:38:42;15.50;73.60
33508;DHT22;25568;37.410;-122.096;2023-11-22T13:41:11;15.50;73.70
33508;DHT22;25568;37.410;-122.096;2023-11-22T13:43:40;15.50;73.60
33508;DHT22;25568;37.410;-122.096;2023-11-22T13:46:08;15.50;73.60
33508;DHT22;25568;37.410;-122.096;2023-11-22T13:48:40;15.50;73.70
33508;DHT22;25568;37.410;-122.096;2023-11-22T13:51:09;15.50;73.70
33508;DHT22;25568;37.410;-122.096;2023-11-22T13:53:38;15.50;73.60
33508;DHT22;25568;37.410;-122.096;2023-11-22T13:56:11;15.50;73.60
33508;DHT22;25568;37.410;-122.096;2023-11-22T13:58:39;15.50;73.70
33508;DHT22;25568;37.410;-122.096;2023-11-22T14:01:08;15.50;73.60
33508;DHT22;25568;37.410;-122.096;2023-11-22T14:03:49;15.50;73.70
33508;DHT22;25568;37.410;-122.096;2023-11-22T14:06:18;15.50;73.70
33508;DHT22;25568;37.410;-122.096;2023-11-22T14:08:47;15.40;73.60
33508;DHT22;25568;37.410;-122.096;2023-11-22T14:11:16;15.40;73.60
33508;DHT22;25568;37.410;-122.096;2023-11-22T14:13:45;15.40;73.60
33508;DHT22;25568;37.410;-122.096;2023-11-22T14:16:13;15.40;73.60
33508;DHT22;25568;37.410;-122.096;2023-11-22T14:18:42;15.40;73.60
33508;DHT22;25568;37.410;-122.096;2023-11-22T14:21:13;15.40;73.60
33508;DHT22;25568;37.410;-122.096;2023-11-22T14:23:42;15.40;73.60
33508;DHT22;25568;37.410;-122.096;2023-11-22T14:26:11;15.40;73.60
33508;DHT22;25568;37.410;-122.096;2023-11-22T14:28:40;15.40;73.60
33508;DHT22;25568;37.410;-122.096;2023-11-22T14:31:10;15.40;73.60
33508;DHT22;25568;37.410;-122.096;2023-11-22T14:33:39;15.40;73.60
33508;DHT22;25568;37.410;-122.096;2023-11-22T14:36:08;15.40;73.60
33508;DHT22;25568;37.410;-122.096;2023-11-22T14:38:41;15.40;73.50
33508;DHT22;25568;37.410;-122.096;2023-11-22T14:41:10;15.40;73.50
33508;DHT22;25568;37.410;-122.096;2023-11-22T14:43:39;15.30;73.50
33508;DHT22;25568;37.410;-122.096;2023-11-22T14:46:08;15.30;73.40
33508;DHT22;25568;37.410;-122.096;2023-11-22T14:48:37;15.40;73.60
33508;DHT22;25568;37.410;-122.096;2023-11-22T14:51:06;15.30;73.40
33508;DHT22;25568;37.410;-122.096;2023-11-22T14:53:37;15.30;73.50
33508;DHT22;25568;37.410;-122.096;2023-11-22T14:56:10;15.30;73.60
33508;DHT22;25568;37.410;-122.096;2023-11-22T14:58:39;15.30;73.50
33508;DHT22;25568;37.410;-122.096;2023-11-22T15:01:08;15.30;73.90
33508;DHT22;25568;37.410;-122.096;2023-11-22T15:03:36;15.30;73.60
33508;DHT22;25568;37.410;-122.096;2023-11-22T15:06:06;15.30;74.20